sensor_id;sensor_type;location;lat;lon;timestamp;temperature;humidity
1568;DHT22;777;47.156;8.326;2023-03-12T00:01:14;1.80;99.90
1568;DHT22;777;47.156;8.326;2023-03-12T00:03:41;1.80;99.90
1568;DHT22;777;47.156;8.326;2023-03-12T00:06:08;1.80;99.90
1568;DHT22;777;47.156;8.326;2023-03-12T00:08:36;1.80;99.90
1568;DHT22;777;47.156;8.326;2023-03-12T00:11:07;1.80;99.90
1568;DHT22;777;47.156;8.326;2023-03-12T00:13:35;1.80;99.90
1568;DHT22;777;47.156;8.326;2023-03-12T00:16:04;1.80;99.90
1568;DHT22;777;47.156;8.326;2023-03-12T00:18:31;1.70;99.90
1568;DHT22;777;47.156;8.326;2023-03-12T00:20:58;1.70;99.90
1568;DHT22;777;47.156;8.326;2023-03-12T00:23:25;1.70;99.90
1568;DHT22;777;47.156;8.326;2023-03-12T00:25:53;1.70;99.90
1568;DHT22;777;47.156;8.326;2023-03-12T00:28:20;1.70;99.90
1568;DHT22;777;47.156;8.326;2023-03-12T00:30:47;1.80;99.90
1568;DHT22;777;47.156;8.326;2023-03-12T00:33:14;1.70;99.90
1568;DHT22;777;47.156;8.326;2023-03-12T00:35:41;1.70;99.90
1568;DHT22;777;47.156;8.326;2023-03-12T00:38:08;1.70;99.90
1568;DHT22;777;47.156;8.326;2023-03-12T00:40:35;1.80;99.90
1568;DHT22;777;47.156;8.326;2023-03-12T00:43:05;1.80;99.90
1568;DHT22;777;47.156;8.326;2023-03-12T00:45:32;1.70;99.90
1568;DHT22;777;47.156;8.326;2023-03-12T00:47:59;1.70;99.90
1568;DHT22;777;47.156;8.326;2023-03-12T00:50:26;1.80;99.90
1568;DHT22;777;47.156;8.326;2023-03-12T00:52:53;1.80;99.90
1568;DHT22;777;47.156;8.326;2023-03-12T00:55:20;1.80;99.90
1568;DHT22;777;47.156;8.326;2023-03-12T00:57:47;1.80;99.90
1568;DHT22;777;47.156;8.326;2023-03-12T01:00:16;1.80;99.90
1568;DHT22;777;47.156;8.326;2023-03-12T01:02:43;1.80;99.90
1568;DHT22;777;47.156;8.326;2023-03-12T01:05:11;1.80;99.90
1568;DHT22;777;47.156;8.326;2023-03-12T01:07:39;1.80;99.90
1568;DHT22;777;47.156;8.326;2023-03-12T01:10:07;1.80;99.90
1568;DHT22;777;47.156;8.326;2023-03-12T01:12:34;1.80;99.90
1568;DHT22;777;47.156;8.326;2023-03-12T01:15:02;1.80;99.90
1568;DHT22;777;47.156;8.326;2023-03-12T01:17:30;1.80;99.90
1568;DHT22;777;47.156;8.326;2023-03-12T01:19:58;1.80;99.90
1568;DHT22;777;47.156;8.326;2023-03-12T01:22:25;1.80;99.90
1568;DHT22;777;47.156;8.326;2023-03-12T01:24:52;1.70;99.90
1568;DHT22;777;47.156;8.326;2023-03-12T01:27:19;1.70;99.90
1568;DHT22;777;47.156;8.326;2023-03-12T01:29:46;1.70;99.90
1568;DHT22;777;47.156;8.326;2023-03-12T01:32:13;1.70;99.90
1568;DHT22;777;47.156;8.326;2023-03-12T01:34:43;1.80;99.90
1568;DHT22;777;47.156;8.326;2023-03-12T01:37:10;1.80;99.90
1568;DHT22;777;47.156;8.326;2023-03-12T01:39:37;1.80;99.90
1568;DHT22;777;47.156;8.326;2023-03-12T01:42:04;1.80;99.90
1568;DHT22;777;47.156;8.326;2023-03-12T01:44:47;1.90;99.90
1568;DHT22;777;47.156;8.326;2023-03-12T01:47:14;1.90;99.90
1568;DHT22;777;47.156;8.326;2023-03-12T01:49:44;1.80;99.90
1568;DHT22;777;47.156;8.326;2023-03-12T01:52:12;1.90;99.90
1568;DHT22;777;47.156;8.326;2023-03-12T01:54:46;1.90;99.90
1568;DHT22;777;47.156;8.326;2023-03-12T01:57:18;1.90;99.90
1568;DHT22;777;47.156;8.326;2023-03-12T01:59:49;1.90;99.90
1568;DHT22;777;47.156;8.326;2023-03-12T02:02:18;1.90;99.90
1568;DHT22;777;47.156;8.326;2023-03-12T02:05:02;1.90;99.90
1568;DHT22;777;47.156;8.326;2023-03-12T02:07:32;1.90;99.90
1568;DHT22;777;47.156;8.326;2023-03-12T02:10:00;1.90;99.90
1568;DHT22;777;47.156;8.326;2023-03-12T02:12:27;1.90;99.90
1568;DHT22;777;47.156;8.326;2023-03-12T02:14:54;2.00;99.90
1568;DHT22;777;47.156;8.326;2023-03-12T02:17:22;2.00;99.90
1568;DHT22;777;47.156;8.326;2023-03-12T02:19:56;2.00;99.90
1568;DHT22;777;47.156;8.326;2023-03-12T02:22:26;2.00;99.90
1568;DHT22;777;47.156;8.326;2023-03-12T02:24:58;2.00;99.90
1568;DHT22;777;47.156;8.326;2023-03-12T02:27:31;2.00;99.90
1568;DHT22;777;47.156;8.326;2023-03-12T02:29:59;1.90;99.90
1568;DHT22;777;47.156;8.326;2023-03-12T02:32:29;1.90;99.90
1568;DHT22;777;47.156;8.326;2023-03-12T02:34:59;1.90;99.90
1568;DHT22;777;47.156;8.326;2023-03-12T02:37:26;1.90;99.90
1568;DHT22;777;47.156;8.326;2023-03-12T02:39:58;1.90;99.90
1568;DHT22;777;47.156;8.326;2023-03-12T02:42:25;2.00;99.90
1568;DHT22;777;47.156;8.326;2023-03-12T02:44:54;1.90;99.90
1568;DHT22;777;47.156;8.326;2023-03-12T02:47:21;1.90;99.90
1568;DHT22;777;47.156;8.326;2023-03-12T02:49:48;1.90;99.90
1568;DHT22;777;47.156;8.326;2023-03-12T02:52:15;1.90;99.90
1568;DHT22;777;47.156;8.326;2023-03-12T02:54:42;1.90;99.90
1568;DHT22;777;47.156;8.326;2023-03-12T02:57:09;1.90;99.90
1568;DHT22;777;47.156;8.326;2023-03-12T02:59:37;1.90;99.90
1568;DHT22;777;47.156;8.326;2023-03-12T03:02:07;1.90;99.90
1568;DHT22;777;47.156;8.326;2023-03-12T03:04:37;1.90;99.90
1568;DHT22;777;47.156;8.326;2023-03-12T03:07:04;1.90;99.90
1568;DHT22;777;47.156;8.326;2023-03-12T03:09:31;1.90;99.90
1568;DHT22;777;47.156;8.326;2023-03-12T03:11:58;1.80;99.90
1568;DHT22;777;47.156;8.326;2023-03-12T03:14:27;1.80;99.90
1568;DHT22;777;47.156;8.326;2023-03-12T03:16:54;1.90;99.90
1568;DHT22;777;47.156;8.326;2023-03-12T03:19:23;1.90;99.90
1568;DHT22;777;47.156;8.326;2023-03-12T03:21:50;1.90;99.90
1568;DHT22;777;47.156;8.326;2023-03-12T03:24:17;1.90;99.90
1568;DHT22;777;47.156;8.326;2023-03-12T03:26:44;1.90;99.90
1568;DHT22;777;47.156;8.326;2023-03-12T03:29:11;2.00;99.90
1568;DHT22;777;47.156;8.326;2023-03-12T03:31:38;2.00;99.90
1568;DHT22;777;47.156;8.326;2023-03-12T03:34:05;2.00;99.90
1568;DHT22;777;47.156;8.326;2023-03-12T03:36:34;2.00;99.90
1568;DHT22;777;47.156;8.326;2023-03-12T03:39:14;2.00;99.90
1568;DHT22;777;47.156;8.326;2023-03-12T03:41:41;2.00;99.90
1568;DHT22;777;47.156;8.326;2023-03-12T03:44:08;2.00;99.90
1568;DHT22;777;47.156;8.326;2023-03-12T03:46:37;2.00;99.90
1568;DHT22;777;47.156;8.326;2023-03-12T03:49:06;1.90;99.90
1568;DHT22;777;47.156;8.326;2023-03-12T03:51:36;1.90;99.90
1568;DHT22;777;47.156;8.326;2023-03-12T03:54:07;1.90;99.90
1568;DHT22;777;47.156;8.326;2023-03-12T03:56:34;1.90;99.90
1568;DHT22;777;47.156;8.326;2023-03-12T03:59:03;1.80;99.90
1568;DHT22;777;47.156;8.326;2023-03-12T04:01:32;1.80;99.90
1568;DHT22;777;47.156;8.326;2023-03-12T04:04:00;1.80;99.90
1568;DHT22;777;47.156;8.326;2023-03-12T04:06:29;1.70;99.90
1568;DHT22;777;47.156;8.326;2023-03-12T04:08:58;1.70;99.90
1568;DHT22;777;47.156;8.326;2023-03-12T04:11:26;1.60;99.90
1568;DHT22;777;47.156;8.326;2023-03-12T04:13:56;1.60;99.90
1568;DHT22;777;47.156;8.326;2023-03-12T04:16:26;1.60;99.90
1568;DHT22;777;47.156;8.326;2023-03-12T04:18:54;1.60;99.90
1568;DHT22;777;47.156;8.326;2023-03-12T04:21:22;1.60;99.90
1568;DHT22;777;47.156;8.326;2023-03-12T04:23:50;1.60;99.90
1568;DHT22;777;47.156;8.326;2023-03-12T04:26:21;1.60;99.90
1568;DHT22;777;47.156;8.326;2023-03-12T04:28:48;1.60;99.90
1568;DHT22;777;47.156;8.326;2023-03-12T04:31:15;1.50;99.90
1568;DHT22;777;47.156;8.326;2023-03-12T04:33:49;1.50;99.90
1568;DHT22;777;47.156;8.326;2023-03-12T04:36:17;1.50;99.90
1568;DHT22;777;47.156;8.326;2023-03-12T04:38:47;1.50;99.90
1568;DHT22;777;47.156;8.326;2023-03-12T04:41:16;1.50;99.90
1568;DHT22;777;47.156;8.326;2023-03-12T04:43:49;1.50;99.90
1568;DHT22;777;47.156;8.326;2023-03-12T04:46:17;1.50;99.90
1568;DHT22;777;47.156;8.326;2023-03-12T04:48:44;1.50;99.90
1568;DHT22;777;47.156;8.326;2023-03-12T04:51:12;1.50;99.90
1568;DHT22;777;47.156;8.326;2023-03-12T04:53:39;1.50;99.90
1568;DHT22;777;47.156;8.326;2023-03-12T04:56:09;1.50;99.90
1568;DHT22;777;47.156;8.326;2023-03-12T04:58:36;1.50;99.90
1568;DHT22;777;47.156;8.326;2023-03-12T05:01:05;1.50;99.90
1568;DHT22;777;47.156;8.326;2023-03-12T05:03:32;1.60;99.90
1568;DHT22;777;47.156;8.326;2023-03-12T05:06:00;1.60;99.90
1568;DHT22;777;47.156;8.326;2023-03-12T05:08:27;1.70;99.90
1568;DHT22;777;47.156;8.326;2023-03-12T05:10:54;1.70;99.90
1568;DHT22;777;47.156;8.326;2023-03-12T05:13:21;1.70;99.90
1568;DHT22;777;47.156;8.326;2023-03-12T05:15:52;1.70;99.90
1568;DHT22;777;47.156;8.326;2023-03-12T05:18:21;1.70;99.90
1568;DHT22;777;47.156;8.326;2023-03-12T05:20:57;1.80;99.90
1568;DHT22;777;47.156;8.326;2023-03-12T05:23:24;1.80;99.90
1568;DHT22;777;47.156;8.326;2023-03-12T05:25:51;1.80;99.90
1568;DHT22;777;47.156;8.326;2023-03-12T05:28:19;1.90;99.90
1568;DHT22;777;47.156;8.326;2023-03-12T05:30:47;1.90;99.90
1568;DHT22;777;47.156;8.326;2023-03-12T05:33:14;1.90;99.90
1568;DHT22;777;47.156;8.326;2023-03-12T05:35:42;1.90;99.90
1568;DHT22;777;47.156;8.326;2023-03-12T05:38:09;1.90;99.90
1568;DHT22;777;47.156;8.326;2023-03-12T05:40:36;1.90;99.90
1568;DHT22;777;47.156;8.326;2023-03-12T05:43:05;1.90;99.90
1568;DHT22;777;47.156;8.326;2023-03-12T05:45:32;1.90;99.90
1568;DHT22;777;47.156;8.326;2023-03-12T05:47:59;1.90;99.90
1568;DHT22;777;47.156;8.326;2023-03-12T05:50:28;2.00;99.90
1568;DHT22;777;47.156;8.326;2023-03-12T05:52:56;2.00;99.90
1568;DHT22;777;47.156;8.326;2023-03-12T05:55:23;2.00;99.90
1568;DHT22;777;47.156;8.326;2023-03-12T05:57:52;2.00;99.90
1568;DHT22;777;47.156;8.326;2023-03-12T06:00:19;2.10;99.90
1568;DHT22;777;47.156;8.326;2023-03-12T06:02:53;2.10;99.90
1568;DHT22;777;47.156;8.326;2023-03-12T06:05:20;2.10;99.90
1568;DHT22;777;47.156;8.326;2023-03-12T06:07:47;2.00;99.90
1568;DHT22;777;47.156;8.326;2023-03-12T06:10:16;2.10;99.90
1568;DHT22;777;47.156;8.326;2023-03-12T06:12:44;2.10;99.90
1568;DHT22;777;47.156;8.326;2023-03-12T06:15:11;2.10;99.90
1568;DHT22;777;47.156;8.326;2023-03-12T06:17:38;2.10;99.90
1568;DHT22;777;47.156;8.326;2023-03-12T06:20:06;2.10;99.90
1568;DHT22;777;47.156;8.326;2023-03-12T06:22:33;2.00;99.90
1568;DHT22;777;47.156;8.326;2023-03-12T06:25:00;2.00;99.90
1568;DHT22;777;47.156;8.326;2023-03-12T06:27:29;2.10;99.90
1568;DHT22;777;47.156;8.326;2023-03-12T06:29:56;2.10;99.90
1568;DHT22;777;47.156;8.326;2023-03-12T06:32:23;2.10;99.90
1568;DHT22;777;47.156;8.326;2023-03-12T06:34:50;2.10;99.90
1568;DHT22;777;47.156;8.326;2023-03-12T06:37:17;2.00;99.90
1568;DHT22;777;47.156;8.326;2023-03-12T06:39:44;2.00;99.90
1568;DHT22;777;47.156;8.326;2023-03-12T06:42:11;2.10;99.90
1568;DHT22;777;47.156;8.326;2023-03-12T06:44:40;2.10;99.90
1568;DHT22;777;47.156;8.326;2023-03-12T06:47:07;2.00;99.90
1568;DHT22;777;47.156;8.326;2023-03-12T06:49:35;2.00;99.90
1568;DHT22;777;47.156;8.326;2023-03-12T06:52:04;1.90;99.90
1568;DHT22;777;47.156;8.326;2023-03-12T06:54:31;1.80;99.90
1568;DHT22;777;47.156;8.326;2023-03-12T06:56:57;1.80;99.90
1568;DHT22;777;47.156;8.326;2023-03-12T06:59:25;1.80;99.90
1568;DHT22;777;47.156;8.326;2023-03-12T07:01:53;1.80;99.90
1568;DHT22;777;47.156;8.326;2023-03-12T07:04:20;1.80;99.90
1568;DHT22;777;47.156;8.326;2023-03-12T07:06:47;1.80;99.90
1568;DHT22;777;47.156;8.326;2023-03-12T07:09:16;1.90;99.90
1568;DHT22;777;47.156;8.326;2023-03-12T07:11:43;2.00;99.90
1568;DHT22;777;47.156;8.326;2023-03-12T07:14:10;2.20;99.90
1568;DHT22;777;47.156;8.326;2023-03-12T07:16:37;2.30;99.90
1568;DHT22;777;47.156;8.326;2023-03-12T07:19:06;2.50;99.90
1568;DHT22;777;47.156;8.326;2023-03-12T07:21:33;2.60;99.90
1568;DHT22;777;47.156;8.326;2023-03-12T07:24:00;2.70;99.90
1568;DHT22;777;47.156;8.326;2023-03-12T07:26:32;2.70;99.90
1568;DHT22;777;47.156;8.326;2023-03-12T07:29:00;2.80;99.90
1568;DHT22;777;47.156;8.326;2023-03-12T07:31:27;3.00;99.90
1568;DHT22;777;47.156;8.326;2023-03-12T07:33:54;3.20;99.90
1568;DHT22;777;47.156;8.326;2023-03-12T07:36:22;3.40;99.90
1568;DHT22;777;47.156;8.326;2023-03-12T07:38:49;3.40;99.90
1568;DHT22;777;47.156;8.326;2023-03-12T07:41:16;3.50;99.90
1568;DHT22;777;47.156;8.326;2023-03-12T07:43:43;3.60;99.90
1568;DHT22;777;47.156;8.326;2023-03-12T07:46:10;3.70;99.90
1568;DHT22;777;47.156;8.326;2023-03-12T07:48:37;3.90;99.90
1568;DHT22;777;47.156;8.326;2023-03-12T07:51:04;4.10;99.90
1568;DHT22;777;47.156;8.326;2023-03-12T07:53:33;4.10;99.90
1568;DHT22;777;47.156;8.326;2023-03-12T07:56:00;4.10;99.90
1568;DHT22;777;47.156;8.326;2023-03-12T07:58:27;4.10;99.90
1568;DHT22;777;47.156;8.326;2023-03-12T08:00:54;4.00;99.90
1568;DHT22;777;47.156;8.326;2023-03-12T08:03:21;4.00;99.90
1568;DHT22;777;47.156;8.326;2023-03-12T08:05:55;4.10;99.90
1568;DHT22;777;47.156;8.326;2023-03-12T08:08:22;4.10;99.90
1568;DHT22;777;47.156;8.326;2023-03-12T08:10:51;4.10;99.90
1568;DHT22;777;47.156;8.326;2023-03-12T08:13:18;4.30;99.90
1568;DHT22;777;47.156;8.326;2023-03-12T08:15:45;4.40;99.90
1568;DHT22;777;47.156;8.326;2023-03-12T08:18:12;4.30;99.90
1568;DHT22;777;47.156;8.326;2023-03-12T08:20:38;4.50;99.90
1568;DHT22;777;47.156;8.326;2023-03-12T08:23:05;4.50;99.90
1568;DHT22;777;47.156;8.326;2023-03-12T08:25:32;4.60;99.90
1568;DHT22;777;47.156;8.326;2023-03-12T08:28:02;4.70;99.90
1568;DHT22;777;47.156;8.326;2023-03-12T08:30:30;4.70;99.90
1568;DHT22;777;47.156;8.326;2023-03-12T08:32:57;4.80;99.90
1568;DHT22;777;47.156;8.326;2023-03-12T08:35:24;4.90;99.90
1568;DHT22;777;47.156;8.326;2023-03-12T08:37:51;5.00;99.90
1568;DHT22;777;47.156;8.326;2023-03-12T08:40:18;4.90;99.90
1568;DHT22;777;47.156;8.326;2023-03-12T08:42:45;5.00;99.90
1568;DHT22;777;47.156;8.326;2023-03-12T08:45:13;5.10;99.90
1568;DHT22;777;47.156;8.326;2023-03-12T08:47:41;5.10;99.90
1568;DHT22;777;47.156;8.326;2023-03-12T08:50:10;5.00;99.90
1568;DHT22;777;47.156;8.326;2023-03-12T08:52:37;5.00;99.90
1568;DHT22;777;47.156;8.326;2023-03-12T08:55:05;5.00;99.90
1568;DHT22;777;47.156;8.326;2023-03-12T08:57:32;5.00;99.90
1568;DHT22;777;47.156;8.326;2023-03-12T08:59:59;5.10;99.90
1568;DHT22;777;47.156;8.326;2023-03-12T09:02:27;5.20;99.90
1568;DHT22;777;47.156;8.326;2023-03-12T09:04:54;5.30;99.90
1568;DHT22;777;47.156;8.326;2023-03-12T09:07:21;5.40;99.90
1568;DHT22;777;47.156;8.326;2023-03-12T09:09:48;5.40;99.90
1568;DHT22;777;47.156;8.326;2023-03-12T09:12:15;5.30;99.90
1568;DHT22;777;47.156;8.326;2023-03-12T09:14:42;5.50;99.90
1568;DHT22;777;47.156;8.326;2023-03-12T09:17:09;5.60;99.90
1568;DHT22;777;47.156;8.326;2023-03-12T09:19:38;5.80;99.90
1568;DHT22;777;47.156;8.326;2023-03-12T09:22:05;6.00;99.90
1568;DHT22;777;47.156;8.326;2023-03-12T09:24:32;6.30;99.90
1568;DHT22;777;47.156;8.326;2023-03-12T09:26:59;6.40;99.90
1568;DHT22;777;47.156;8.326;2023-03-12T09:29:26;6.40;99.90
1568;DHT22;777;47.156;8.326;2023-03-12T09:31:53;6.50;99.90
1568;DHT22;777;47.156;8.326;2023-03-12T09:34:20;6.40;99.90
1568;DHT22;777;47.156;8.326;2023-03-12T09:36:49;6.20;99.90
1568;DHT22;777;47.156;8.326;2023-03-12T09:39:16;6.00;99.90
1568;DHT22;777;47.156;8.326;2023-03-12T09:41:46;6.00;99.90
1568;DHT22;777;47.156;8.326;2023-03-12T09:44:18;6.00;99.90
1568;DHT22;777;47.156;8.326;2023-03-12T09:46:49;6.00;99.90
1568;DHT22;777;47.156;8.326;2023-03-12T09:49:20;6.00;99.90
1568;DHT22;777;47.156;8.326;2023-03-12T09:51:52;6.10;99.90
1568;DHT22;777;47.156;8.326;2023-03-12T09:54:26;6.10;99.90
1568;DHT22;777;47.156;8.326;2023-03-12T09:56:57;6.10;99.90
1568;DHT22;777;47.156;8.326;2023-03-12T09:59:26;6.30;99.90
1568;DHT22;777;47.156;8.326;2023-03-12T10:01:56;6.30;99.90
1568;DHT22;777;47.156;8.326;2023-03-12T10:04:36;6.50;99.90
1568;DHT22;777;47.156;8.326;2023-03-12T10:07:12;6.70;99.90
1568;DHT22;777;47.156;8.326;2023-03-12T10:09:58;6.90;99.90
1568;DHT22;777;47.156;8.326;2023-03-12T10:12:33;7.00;99.90
1568;DHT22;777;47.156;8.326;2023-03-12T10:15:16;7.10;99.90
1568;DHT22;777;47.156;8.326;2023-03-12T10:17:58;7.10;99.90
1568;DHT22;777;47.156;8.326;2023-03-12T10:23:37;6.70;99.90
1568;DHT22;777;47.156;8.326;2023-03-12T10:26:13;6.70;99.90
1568;DHT22;777;47.156;8.326;2023-03-12T10:28:43;6.70;99.90
1568;DHT22;777;47.156;8.326;2023-03-12T10:31:14;6.70;99.90
1568;DHT22;777;47.156;8.326;2023-03-12T10:33:46;6.60;99.90
1568;DHT22;777;47.156;8.326;2023-03-12T10:36:18;6.50;99.90
1568;DHT22;777;47.156;8.326;2023-03-12T10:38:47;6.60;99.90
1568;DHT22;777;47.156;8.326;2023-03-12T10:41:16;6.60;99.90
1568;DHT22;777;47.156;8.326;2023-03-12T10:43:43;6.70;99.90
1568;DHT22;777;47.156;8.326;2023-03-12T10:46:37;6.80;99.90
1568;DHT22;777;47.156;8.326;2023-03-12T10:49:28;6.80;99.90
1568;DHT22;777;47.156;8.326;2023-03-12T10:51:58;7.10;99.90
1568;DHT22;777;47.156;8.326;2023-03-12T10:54:33;7.10;99.90
1568;DHT22;777;47.156;8.326;2023-03-12T10:57:00;7.10;99.90
1568;DHT22;777;47.156;8.326;2023-03-12T10:59:30;7.20;99.90
1568;DHT22;777;47.156;8.326;2023-03-12T11:01:58;7.20;99.90
1568;DHT22;777;47.156;8.326;2023-03-12T11:04:27;7.30;99.90
1568;DHT22;777;47.156;8.326;2023-03-12T11:07:17;7.30;99.90
1568;DHT22;777;47.156;8.326;2023-03-12T11:10:10;7.00;99.90
1568;DHT22;777;47.156;8.326;2023-03-12T11:12:38;6.70;99.90
1568;DHT22;777;47.156;8.326;2023-03-12T11:15:19;6.40;99.90
1568;DHT22;777;47.156;8.326;2023-03-12T11:17:46;6.30;99.90
1568;DHT22;777;47.156;8.326;2023-03-12T11:20:24;6.30;99.90
1568;DHT22;777;47.156;8.326;2023-03-12T11:22:52;6.40;99.90
1568;DHT22;777;47.156;8.326;2023-03-12T11:25:23;6.50;99.90
1568;DHT22;777;47.156;8.326;2023-03-12T11:27:53;6.70;99.90
1568;DHT22;777;47.156;8.326;2023-03-12T11:30:25;7.00;99.90
1568;DHT22;777;47.156;8.326;2023-03-12T11:32:55;7.40;99.90
1568;DHT22;777;47.156;8.326;2023-03-12T11:35:32;7.70;99.90
1568;DHT22;777;47.156;8.326;2023-03-12T11:38:09;7.90;99.90
1568;DHT22;777;47.156;8.326;2023-03-12T11:40:55;8.00;99.90
1568;DHT22;777;47.156;8.326;2023-03-12T11:43:42;8.00;99.90
1568;DHT22;777;47.156;8.326;2023-03-12T11:46:33;8.10;99.90
1568;DHT22;777;47.156;8.326;2023-03-12T11:49:13;8.20;99.90
1568;DHT22;777;47.156;8.326;2023-03-12T11:51:50;8.20;99.90
1568;DHT22;777;47.156;8.326;2023-03-12T11:54:47;8.30;99.90
1568;DHT22;777;47.156;8.326;2023-03-12T11:57:29;8.30;99.90
1568;DHT22;777;47.156;8.326;2023-03-12T12:00:10;8.30;99.90
1568;DHT22;777;47.156;8.326;2023-03-12T12:05:54;8.60;99.90
1568;DHT22;777;47.156;8.326;2023-03-12T12:08:43;8.40;99.90
1568;DHT22;777;47.156;8.326;2023-03-12T12:11:17;8.40;99.90
1568;DHT22;777;47.156;8.326;2023-03-12T12:13:54;8.40;99.90
1568;DHT22;777;47.156;8.326;2023-03-12T12:16:48;8.50;99.90
1568;DHT22;777;47.156;8.326;2023-03-12T12:19:32;8.80;99.90
1568;DHT22;777;47.156;8.326;2023-03-12T12:25:11;8.80;99.90
1568;DHT22;777;47.156;8.326;2023-03-12T12:27:50;8.60;99.90
1568;DHT22;777;47.156;8.326;2023-03-12T12:30:28;8.50;99.90
1568;DHT22;777;47.156;8.326;2023-03-12T12:33:12;8.50;99.90
1568;DHT22;777;47.156;8.326;2023-03-12T12:35:42;8.50;99.90
1568;DHT22;777;47.156;8.326;2023-03-12T12:38:15;8.60;99.90
1568;DHT22;777;47.156;8.326;2023-03-12T12:40:48;8.70;99.90
1568;DHT22;777;47.156;8.326;2023-03-12T12:43:24;8.70;99.90
1568;DHT22;777;47.156;8.326;2023-03-12T12:45:57;8.80;99.90
1568;DHT22;777;47.156;8.326;2023-03-12T12:48:28;9.10;99.90
1568;DHT22;777;47.156;8.326;2023-03-12T12:50:59;9.50;99.90
1568;DHT22;777;47.156;8.326;2023-03-12T12:53:31;10.50;99.90
1568;DHT22;777;47.156;8.326;2023-03-12T12:56:07;10.80;99.90
1568;DHT22;777;47.156;8.326;2023-03-12T12:58:53;10.80;99.90
1568;DHT22;777;47.156;8.326;2023-03-12T13:01:24;12.30;99.90
1568;DHT22;777;47.156;8.326;2023-03-12T13:03:56;13.00;99.90
1568;DHT22;777;47.156;8.326;2023-03-12T13:06:27;12.20;99.90
1568;DHT22;777;47.156;8.326;2023-03-12T13:08:59;11.50;99.90
1568;DHT22;777;47.156;8.326;2023-03-12T13:11:38;10.80;99.90
1568;DHT22;777;47.156;8.326;2023-03-12T13:14:19;10.30;99.90
1568;DHT22;777;47.156;8.326;2023-03-12T13:16:48;9.90;99.90
1568;DHT22;777;47.156;8.326;2023-03-12T13:19:24;9.40;99.90
1568;DHT22;777;47.156;8.326;2023-03-12T13:22:03;9.20;99.90
1568;DHT22;777;47.156;8.326;2023-03-12T13:24:41;9.30;99.90
1568;DHT22;777;47.156;8.326;2023-03-12T13:27:15;9.50;99.90
1568;DHT22;777;47.156;8.326;2023-03-12T13:29:45;9.50;99.90
1568;DHT22;777;47.156;8.326;2023-03-12T13:32:37;9.50;99.90
1568;DHT22;777;47.156;8.326;2023-03-12T13:35:30;9.50;99.90
1568;DHT22;777;47.156;8.326;2023-03-12T13:38:01;9.50;99.90
1568;DHT22;777;47.156;8.326;2023-03-12T13:40:52;9.60;99.90
1568;DHT22;777;47.156;8.326;2023-03-12T13:43:39;9.90;99.90
1568;DHT22;777;47.156;8.326;2023-03-12T13:46:19;10.20;99.90
1568;DHT22;777;47.156;8.326;2023-03-12T13:48:49;10.60;99.90
1568;DHT22;777;47.156;8.326;2023-03-12T13:51:18;10.90;99.90
1568;DHT22;777;47.156;8.326;2023-03-12T13:53:48;13.30;99.90
1568;DHT22;777;47.156;8.326;2023-03-12T13:56:17;15.60;99.90
1568;DHT22;777;47.156;8.326;2023-03-12T13:58:49;17.50;99.90
1568;DHT22;777;47.156;8.326;2023-03-12T14:01:22;17.60;99.90
1568;DHT22;777;47.156;8.326;2023-03-12T14:03:54;17.80;99.90
1568;DHT22;777;47.156;8.326;2023-03-12T14:06:28;16.00;99.90
1568;DHT22;777;47.156;8.326;2023-03-12T14:09:07;15.50;99.90
1568;DHT22;777;47.156;8.326;2023-03-12T14:11:48;16.00;99.90
1568;DHT22;777;47.156;8.326;2023-03-12T14:14:36;17.00;99.90
1568;DHT22;777;47.156;8.326;2023-03-12T14:17:14;17.30;99.90
1568;DHT22;777;47.156;8.326;2023-03-12T14:19:47;17.90;99.90
1568;DHT22;777;47.156;8.326;2023-03-12T14:22:15;18.20;99.90
1568;DHT22;777;47.156;8.326;2023-03-12T14:24:50;17.80;99.90
1568;DHT22;777;47.156;8.326;2023-03-12T14:27:24;18.50;99.90
1568;DHT22;777;47.156;8.326;2023-03-12T14:29:55;19.90;99.90
1568;DHT22;777;47.156;8.326;2023-03-12T14:32:26;19.30;99.90
1568;DHT22;777;47.156;8.326;2023-03-12T14:35:02;17.80;99.90
1568;DHT22;777;47.156;8.326;2023-03-12T14:37:37;17.00;99.90
1568;DHT22;777;47.156;8.326;2023-03-12T14:40:18;18.80;99.90
1568;DHT22;777;47.156;8.326;2023-03-12T14:42:47;19.40;99.90
1568;DHT22;777;47.156;8.326;2023-03-12T14:45:17;20.10;99.90
1568;DHT22;777;47.156;8.326;2023-03-12T14:47:46;20.40;99.90
1568;DHT22;777;47.156;8.326;2023-03-12T14:50:19;19.60;99.90
1568;DHT22;777;47.156;8.326;2023-03-12T14:52:47;19.10;99.90
1568;DHT22;777;47.156;8.326;2023-03-12T14:55:15;18.60;99.90
1568;DHT22;777;47.156;8.326;2023-03-12T14:57:43;18.50;99.90
1568;DHT22;777;47.156;8.326;2023-03-12T15:00:23;18.50;99.90
1568;DHT22;777;47.156;8.326;2023-03-12T15:02:52;19.00;99.90
1568;DHT22;777;47.156;8.326;2023-03-12T15:05:27;19.30;99.90
1568;DHT22;777;47.156;8.326;2023-03-12T15:07:59;18.70;99.90
1568;DHT22;777;47.156;8.326;2023-03-12T15:10:29;19.10;99.90
1568;DHT22;777;47.156;8.326;2023-03-12T15:12:58;18.90;99.90
1568;DHT22;777;47.156;8.326;2023-03-12T15:15:34;18.90;99.90
1568;DHT22;777;47.156;8.326;2023-03-12T15:18:04;18.50;99.90
1568;DHT22;777;47.156;8.326;2023-03-12T15:20:34;18.30;99.90
1568;DHT22;777;47.156;8.326;2023-03-12T15:23:01;18.20;99.90
1568;DHT22;777;47.156;8.326;2023-03-12T15:25:30;17.30;99.90
1568;DHT22;777;47.156;8.326;2023-03-12T15:28:03;16.80;99.90
1568;DHT22;777;47.156;8.326;2023-03-12T15:30:31;16.50;99.90
1568;DHT22;777;47.156;8.326;2023-03-12T15:33:03;16.50;99.90
1568;DHT22;777;47.156;8.326;2023-03-12T15:35:30;16.80;99.90
1568;DHT22;777;47.156;8.326;2023-03-12T15:37:59;16.60;99.90
1568;DHT22;777;47.156;8.326;2023-03-12T15:40:28;16.80;99.90
1568;DHT22;777;47.156;8.326;2023-03-12T15:42:57;16.60;99.90
1568;DHT22;777;47.156;8.326;2023-03-12T15:45:36;16.40;99.90
1568;DHT22;777;47.156;8.326;2023-03-12T15:48:11;16.10;99.90
1568;DHT22;777;47.156;8.326;2023-03-12T15:50:42;15.70;99.90
1568;DHT22;777;47.156;8.326;2023-03-12T15:53:26;15.00;99.90
1568;DHT22;777;47.156;8.326;2023-03-12T15:56:19;14.70;99.90
1568;DHT22;777;47.156;8.326;2023-03-12T15:58:49;14.20;99.90
1568;DHT22;777;47.156;8.326;2023-03-12T16:01:24;14.00;99.90
1568;DHT22;777;47.156;8.326;2023-03-12T16:03:53;13.90;99.90
1568;DHT22;777;47.156;8.326;2023-03-12T16:06:21;14.20;99.90
1568;DHT22;777;47.156;8.326;2023-03-12T16:08:54;14.50;99.90
1568;DHT22;777;47.156;8.326;2023-03-12T16:11:24;14.50;99.90
1568;DHT22;777;47.156;8.326;2023-03-12T16:13:56;14.00;99.90
1568;DHT22;777;47.156;8.326;2023-03-12T16:16:24;13.90;99.90
1568;DHT22;777;47.156;8.326;2023-03-12T16:18:51;13.40;99.90
1568;DHT22;777;47.156;8.326;2023-03-12T16:21:18;13.50;99.90
1568;DHT22;777;47.156;8.326;2023-03-12T16:23:46;13.40;99.90
1568;DHT22;777;47.156;8.326;2023-03-12T16:26:14;13.50;99.90
1568;DHT22;777;47.156;8.326;2023-03-12T16:28:41;13.30;99.90
1568;DHT22;777;47.156;8.326;2023-03-12T16:31:12;13.10;99.90
1568;DHT22;777;47.156;8.326;2023-03-12T16:33:39;12.70;99.90
1568;DHT22;777;47.156;8.326;2023-03-12T16:36:11;12.20;99.90
1568;DHT22;777;47.156;8.326;2023-03-12T16:38:40;11.90;99.90
1568;DHT22;777;47.156;8.326;2023-03-12T16:41:10;11.50;99.90
1568;DHT22;777;47.156;8.326;2023-03-12T16:43:39;11.10;99.90
1568;DHT22;777;47.156;8.326;2023-03-12T16:46:08;11.00;99.90
1568;DHT22;777;47.156;8.326;2023-03-12T16:48:35;10.90;99.90
1568;DHT22;777;47.156;8.326;2023-03-12T16:51:02;10.70;99.90
1568;DHT22;777;47.156;8.326;2023-03-12T16:53:30;10.70;99.90
1568;DHT22;777;47.156;8.326;2023-03-12T16:55:59;10.60;99.90
1568;DHT22;777;47.156;8.326;2023-03-12T16:58:27;10.50;99.90
1568;DHT22;777;47.156;8.326;2023-03-12T17:00:56;10.40;99.90
1568;DHT22;777;47.156;8.326;2023-03-12T17:03:29;10.20;99.90